createdAt,value
2022-11-06T00:00:56.391Z,4.47
2022-11-06T00:01:57.913Z,4.48
2022-11-06T00:03:00.567Z,4.50
2022-11-06T00:04:02.068Z,4.51
2022-11-06T00:05:04.079Z,4.52
2022-11-06T00:06:06.781Z,4.52
2022-11-06T00:07:08.315Z,4.52
2022-11-06T00:08:10.279Z,4.49
2022-11-06T00:09:13.507Z,4.54
2022-11-06T00:10:15.601Z,4.51
2022-11-06T00:11:17.303Z,4.46
2022-11-06T00:12:18.744Z,4.46
2022-11-06T00:13:20.447Z,4.48
2022-11-06T00:14:23.347Z,4.52
2022-11-06T00:15:32.853Z,4.52
2022-11-06T00:16:36.460Z,4.55
2022-11-06T00:17:37.926Z,4.57
2022-11-06T00:18:40.824Z,4.60
2022-11-06T00:19:42.252Z,4.57
2022-11-06T00:20:43.969Z,4.59
2022-11-06T00:21:45.668Z,4.60
2022-11-06T00:22:47.190Z,4.57
2022-11-06T00:23:49.483Z,4.59
2022-11-06T00:24:50.952Z,4.51
2022-11-06T00:25:52.404Z,4.52
2022-11-06T00:26:54.659Z,4.51
2022-11-06T00:27:56.453Z,4.52
2022-11-06T00:28:58.828Z,4.54
2022-11-06T00:30:01.615Z,4.51
2022-11-06T00:31:04.532Z,4.50
2022-11-06T00:32:05.984Z,4.44
2022-11-06T00:33:07.412Z,4.42
2022-11-06T00:34:10.096Z,4.41
2022-11-06T00:35:11.506Z,4.44
2022-11-06T00:36:15.258Z,4.34
2022-11-06T00:37:16.692Z,4.34
2022-11-06T00:38:18.148Z,4.35
2022-11-06T00:39:19.584Z,4.26
2022-11-06T00:40:21.070Z,4.18
2022-11-06T00:41:23.684Z,4.17
2022-11-06T00:42:25.151Z,4.15
2022-11-06T00:43:26.570Z,4.25
2022-11-06T00:44:28.026Z,4.23
2022-11-06T00:45:30.784Z,4.16
2022-11-06T00:46:32.297Z,4.18
2022-11-06T00:47:33.775Z,4.18
2022-11-06T00:48:35.920Z,4.11
2022-11-06T00:49:37.379Z,4.14
2022-11-06T00:50:38.861Z,4.24
2022-11-06T00:51:40.359Z,4.27
2022-11-06T00:52:41.790Z,4.34
2022-11-06T00:53:44.214Z,4.35
2022-11-06T00:54:45.651Z,4.33
2022-11-06T00:55:47.111Z,4.43
2022-11-06T00:56:48.583Z,4.44
2022-11-06T00:57:50.354Z,4.47
2022-11-06T00:58:52.334Z,4.42
2022-11-06T00:59:53.795Z,4.43
2022-11-06T01:00:56.569Z,4.47
2022-11-06T01:01:58.497Z,4.44
2022-11-06T01:03:00.155Z,4.45
2022-11-06T01:04:03.904Z,4.43
2022-11-06T01:05:06.075Z,4.39
2022-11-06T01:06:09.564Z,4.43
2022-11-06T01:07:10.983Z,4.45
2022-11-06T01:08:12.545Z,4.41
2022-11-06T01:09:16.807Z,4.43
2022-11-06T01:10:18.420Z,4.45
2022-11-06T01:11:21.882Z,4.50
2022-11-06T01:12:23.330Z,4.47
2022-11-06T01:13:24.784Z,4.44
2022-11-06T01:14:26.614Z,4.47
2022-11-06T01:15:28.039Z,4.49
2022-11-06T01:16:31.590Z,4.50
2022-11-06T01:17:34.773Z,4.50
2022-11-06T01:18:37.518Z,4.41
2022-11-06T01:19:39.392Z,4.58
2022-11-06T01:20:40.811Z,4.52
2022-11-06T01:21:43.810Z,4.54
2022-11-06T01:22:45.239Z,4.55
2022-11-06T01:23:47.522Z,4.37
2022-11-06T01:24:49.012Z,4.48
2022-11-06T01:25:57.998Z,4.39
2022-11-06T01:28:20.830Z,4.53
2022-11-06T01:29:22.335Z,4.11
2022-11-06T01:30:23.752Z,4.12
2022-11-06T01:31:27.130Z,4.16
2022-11-06T01:32:29.952Z,4.12
2022-11-06T01:33:31.529Z,4.22
2022-11-06T01:34:33.179Z,4.39
2022-11-06T01:35:34.589Z,4.42
2022-11-06T01:36:36.106Z,4.40
2022-11-06T01:37:37.521Z,4.39
2022-11-06T01:38:40.445Z,4.38
2022-11-06T01:39:42.146Z,4.40
2022-11-06T01:40:45.598Z,4.31
2022-11-06T01:41:48.878Z,4.28
2022-11-06T01:42:50.292Z,4.20
2022-11-06T01:43:54.190Z,4.27
2022-11-06T01:45:33.482Z,4.20
2022-11-06T01:46:36.118Z,4.22
2022-11-06T01:47:39.006Z,4.16
2022-11-06T01:48:43.289Z,4.25
2022-11-06T01:49:45.295Z,4.25
2022-11-06T01:50:49.999Z,4.31
2022-11-06T01:51:53.927Z,4.32
2022-11-06T01:52:55.973Z,4.31
2022-11-06T01:53:57.931Z,4.29
2022-11-06T01:55:06.739Z,4.22
2022-11-06T01:56:10.967Z,4.22
2022-11-06T01:57:12.466Z,4.24
2022-11-06T01:58:17.106Z,4.16
2022-11-06T01:59:21.850Z,4.13
2022-11-06T02:00:23.654Z,4.08
2022-11-06T02:01:25.250Z,3.95
2022-11-06T02:02:27.046Z,3.99
2022-11-06T02:03:30.031Z,4.02
2022-11-06T02:04:34.417Z,3.97
2022-11-06T02:05:35.890Z,3.90
2022-11-06T02:06:38.312Z,4.02
2022-11-06T02:07:42.614Z,4.11
2022-11-06T02:08:44.098Z,4.14
2022-11-06T02:09:45.920Z,4.13
2022-11-06T02:10:48.207Z,4.24
2022-11-06T02:11:55.041Z,4.25
2022-11-06T02:13:14.412Z,4.18
2022-11-06T02:14:23.078Z,4.10
2022-11-06T02:15:34.246Z,4.05
2022-11-06T02:16:41.807Z,4.20
2022-11-06T02:17:56.975Z,4.17
2022-11-06T02:19:17.815Z,4.20
2022-11-06T02:20:28.036Z,4.17
2022-11-06T02:22:03.350Z,4.16
2022-11-06T02:23:29.264Z,4.12
2022-11-06T02:24:51.244Z,4.06
2022-11-06T02:26:02.066Z,4.03
2022-11-06T02:27:09.262Z,4.01
2022-11-06T02:28:18.075Z,3.89
2022-11-06T02:29:22.475Z,3.77
2022-11-06T02:30:24.095Z,3.86
2022-11-06T02:31:28.203Z,3.88
2022-11-06T02:32:35.381Z,3.92
2022-11-06T02:33:42.695Z,3.99
2022-11-06T02:34:46.251Z,4.02
2022-11-06T02:35:53.078Z,3.99
2022-11-06T02:36:59.928Z,4.03
2022-11-06T02:38:05.718Z,4.06
2022-11-06T02:39:11.173Z,4.03
2022-11-06T02:40:15.121Z,4.11
2022-11-06T02:41:20.982Z,4.12
2022-11-06T02:42:28.183Z,4.14
2022-11-06T02:43:32.911Z,4.17
2022-11-06T02:44:37.359Z,4.14
2022-11-06T02:45:44.613Z,4.14
2022-11-06T02:46:50.632Z,4.12
2022-11-06T02:47:55.646Z,4.11
2022-11-06T02:49:01.209Z,4.09
2022-11-06T02:50:07.055Z,4.07
2022-11-06T02:51:12.093Z,4.03
2022-11-06T02:52:19.518Z,4.04
2022-11-06T02:53:25.125Z,4.07
2022-11-06T02:54:30.910Z,4.07
2022-11-06T02:55:40.209Z,4.06
2022-11-06T02:56:44.888Z,4.14
2022-11-06T02:57:52.384Z,4.12
2022-11-06T02:58:58.522Z,4.11
2022-11-06T03:00:06.033Z,4.14
2022-11-06T03:01:12.697Z,4.14
2022-11-06T03:02:17.595Z,4.13
2022-11-06T03:03:23.927Z,4.13
2022-11-06T03:04:29.954Z,4.22
2022-11-06T03:05:35.313Z,4.17
2022-11-06T03:06:40.666Z,4.20
2022-11-06T03:07:48.143Z,4.17
2022-11-06T03:08:56.234Z,4.18
2022-11-06T03:09:57.922Z,4.14
2022-11-06T03:11:08.785Z,4.17
2022-11-06T03:12:22.454Z,4.19
2022-11-06T03:13:33.736Z,4.22
2022-11-06T03:14:45.492Z,4.22
2022-11-06T03:15:51.366Z,4.22
2022-11-06T03:16:57.494Z,4.19
2022-11-06T03:18:06.438Z,4.19
2022-11-06T03:19:15.674Z,4.15
2022-11-06T03:20:22.816Z,4.20
2022-11-06T03:21:29.950Z,4.19
2022-11-06T03:22:35.350Z,4.23
2022-11-06T03:23:42.028Z,4.27
2022-11-06T03:24:49.782Z,4.26
2022-11-06T03:25:55.330Z,4.25
2022-11-06T03:26:58.747Z,3.99
2022-11-06T03:28:05.719Z,3.82
2022-11-06T03:29:12.527Z,3.72
2022-11-06T03:30:16.802Z,3.67
2022-11-06T03:31:25.322Z,3.65
2022-11-06T03:32:31.431Z,3.47
2022-11-06T03:33:37.844Z,3.35
2022-11-06T03:34:48.857Z,3.38
2022-11-06T03:35:55.632Z,3.11
2022-11-06T03:37:05.375Z,3.20
2022-11-06T03:38:12.888Z,3.05
2022-11-06T03:39:20.670Z,3.04
2022-11-06T03:40:25.949Z,2.90
2022-11-06T03:41:32.340Z,2.99
2022-11-06T03:42:35.582Z,2.72
2022-11-06T03:43:40.818Z,2.56
2022-11-06T03:44:49.385Z,2.48
2022-11-06T03:45:53.247Z,2.60
2022-11-06T03:46:58.825Z,2.48
2022-11-06T03:48:07.948Z,2.40
2022-11-06T03:49:15.994Z,2.58
2022-11-06T03:50:21.550Z,2.63
2022-11-06T03:51:26.676Z,2.48
2022-11-06T03:52:33.668Z,2.63
2022-11-06T03:53:38.777Z,2.72
2022-11-06T03:54:45.099Z,2.73
2022-11-06T03:55:51.108Z,2.72
2022-11-06T03:56:57.568Z,2.55
2022-11-06T03:58:03.685Z,2.53
2022-11-06T03:59:08.342Z,2.69
2022-11-06T04:00:13.431Z,2.84
2022-11-06T04:01:18.761Z,2.76
2022-11-06T04:02:24.243Z,2.58
2022-11-06T04:03:30.512Z,2.30
2022-11-06T04:04:38.501Z,2.60
2022-11-06T04:05:43.870Z,2.43
2022-11-06T04:06:51.659Z,2.59
2022-11-06T04:07:55.950Z,2.66
2022-11-06T04:09:02.467Z,2.64
2022-11-06T04:10:09.012Z,2.74
2022-11-06T04:11:15.579Z,2.79
2022-11-06T04:12:20.641Z,2.60
2022-11-06T04:13:24.840Z,2.47
2022-11-06T04:14:28.843Z,2.30
2022-11-06T04:15:38.148Z,2.22
2022-11-06T04:16:43.712Z,2.27
2022-11-06T04:17:45.208Z,2.36
2022-11-06T04:18:46.624Z,2.35
2022-11-06T04:19:51.027Z,2.18
2022-11-06T04:21:15.536Z,2.24
2022-11-06T04:22:31.787Z,2.10
2022-11-06T04:23:44.400Z,2.00
2022-11-06T04:24:56.666Z,1.73
2022-11-06T04:26:05.325Z,1.90
2022-11-06T04:27:29.112Z,2.01
2022-11-06T04:28:37.699Z,2.07
2022-11-06T04:29:53.923Z,1.96
2022-11-06T04:31:05.585Z,1.91
2022-11-06T04:32:14.252Z,2.10
2022-11-06T04:33:24.907Z,1.99
2022-11-06T04:34:35.676Z,1.95
2022-11-06T04:35:51.631Z,1.73
2022-11-06T04:37:01.458Z,1.87
2022-11-06T04:38:06.832Z,1.85
2022-11-06T04:39:18.186Z,1.88
2022-11-06T04:40:23.456Z,2.03
2022-11-06T04:41:29.615Z,2.14
2022-11-06T04:42:39.907Z,2.14
2022-11-06T04:43:46.052Z,2.09
2022-11-06T04:44:52.146Z,2.01
2022-11-06T04:45:56.672Z,2.04
2022-11-06T04:47:03.888Z,2.08
2022-11-06T04:48:06.725Z,1.90
2022-11-06T04:49:09.640Z,1.72
2022-11-06T04:50:13.390Z,1.62
2022-11-06T04:51:17.970Z,1.74
2022-11-06T04:52:23.543Z,1.64
2022-11-06T04:53:26.226Z,1.79
2022-11-06T04:54:28.092Z,1.83
2022-11-06T04:55:30.396Z,1.98
2022-11-06T04:56:35.584Z,2.06
2022-11-06T04:57:38.005Z,2.14
2022-11-06T04:58:39.485Z,2.10
2022-11-06T04:59:41.236Z,2.09
2022-11-06T05:00:45.996Z,2.07
2022-11-06T05:01:47.761Z,1.91
2022-11-06T05:02:50.690Z,2.16
2022-11-06T05:03:52.132Z,2.19
2022-11-06T05:04:53.605Z,2.22
2022-11-06T05:05:55.069Z,2.34
2022-11-06T05:06:56.917Z,2.34
2022-11-06T05:07:58.355Z,2.35
2022-11-06T05:08:59.808Z,2.19
2022-11-06T05:10:01.503Z,1.82
2022-11-06T05:11:02.985Z,1.74
2022-11-06T05:12:04.659Z,1.36
2022-11-06T05:13:06.110Z,1.20
2022-11-06T05:14:07.600Z,1.17
2022-11-06T05:15:09.528Z,1.35
2022-11-06T05:16:11.091Z,1.54
2022-11-06T05:17:12.552Z,1.68
2022-11-06T05:18:15.673Z,1.68
2022-11-06T05:19:17.503Z,1.86
2022-11-06T05:20:18.943Z,1.84
2022-11-06T05:21:20.432Z,1.86
2022-11-06T05:22:22.074Z,1.89
2022-11-06T05:23:23.544Z,2.03
2022-11-06T05:24:25.115Z,2.08
2022-11-06T05:25:28.385Z,2.09
2022-11-06T05:26:29.813Z,2.15
2022-11-06T05:27:31.226Z,2.21
2022-11-06T05:28:32.952Z,2.27
2022-11-06T05:29:34.394Z,2.27
2022-11-06T05:30:36.820Z,2.17
2022-11-06T05:31:38.386Z,2.32
2022-11-06T05:32:39.859Z,2.36
2022-11-06T05:33:42.627Z,2.41
2022-11-06T05:34:44.048Z,2.38
2022-11-06T05:35:45.489Z,2.25
2022-11-06T05:36:47.070Z,2.15
2022-11-06T05:37:48.939Z,2.21
2022-11-06T05:38:50.405Z,2.17
2022-11-06T05:39:51.885Z,2.05
2022-11-06T05:40:53.299Z,2.02
2022-11-06T05:41:54.869Z,1.95
2022-11-06T05:42:56.552Z,1.89
2022-11-06T05:43:58.003Z,1.83
2022-11-06T05:44:59.427Z,1.79
2022-11-06T05:46:00.832Z,1.86
2022-11-06T05:47:02.261Z,1.91
2022-11-06T05:48:04.115Z,2.03
2022-11-06T05:49:06.894Z,1.95
2022-11-06T05:50:09.599Z,2.03
2022-11-06T05:51:11.327Z,2.09
2022-11-06T05:52:12.816Z,2.17
2022-11-06T05:53:14.294Z,2.17
2022-11-06T05:54:15.795Z,2.16
2022-11-06T05:55:17.316Z,2.21
2022-11-06T05:56:18.775Z,2.18
2022-11-06T05:57:20.267Z,2.26
2022-11-06T05:58:21.724Z,2.32
2022-11-06T05:59:23.133Z,2.33
2022-11-06T06:00:24.944Z,2.36
2022-11-06T06:01:26.431Z,2.38
2022-11-06T06:02:28.051Z,2.37
2022-11-06T06:03:29.602Z,2.24
2022-11-06T06:04:32.375Z,2.15
2022-11-06T06:05:33.791Z,1.98
2022-11-06T06:06:36.060Z,2.01
2022-11-06T06:07:37.485Z,2.01
2022-11-06T06:08:38.954Z,1.95
2022-11-06T06:09:40.419Z,1.94
2022-11-06T06:10:42.290Z,1.75
2022-11-06T06:11:43.746Z,1.55
2022-11-06T06:12:45.174Z,1.33
2022-11-06T06:13:46.620Z,0.97
2022-11-06T06:14:50.561Z,0.86
2022-11-06T06:15:52.178Z,0.82
2022-11-06T06:16:53.632Z,1.01
2022-11-06T06:17:57.127Z,1.26
2022-11-06T06:18:58.574Z,1.42
2022-11-06T06:20:01.371Z,1.51
2022-11-06T06:21:02.793Z,1.71
2022-11-06T06:22:04.260Z,1.85
2022-11-06T06:23:09.336Z,1.91
2022-11-06T06:24:11.154Z,1.87
2022-11-06T06:25:22.389Z,1.90
2022-11-06T06:26:24.548Z,1.78
2022-11-06T06:27:25.976Z,1.80
2022-11-06T06:28:27.408Z,1.79
2022-11-06T06:29:28.968Z,1.86
2022-11-06T06:30:30.399Z,1.96
2022-11-06T06:31:31.882Z,2.06
2022-11-06T06:32:33.306Z,2.13
2022-11-06T06:33:34.844Z,2.12
2022-11-06T06:34:36.404Z,2.10
2022-11-06T06:35:39.201Z,2.27
2022-11-06T06:36:40.661Z,2.27
2022-11-06T06:37:42.084Z,2.28
2022-11-06T06:38:43.505Z,2.42
2022-11-06T06:39:44.940Z,2.17
2022-11-06T06:40:46.388Z,1.99
2022-11-06T06:41:48.674Z,2.36
2022-11-06T06:42:50.365Z,2.43
2022-11-06T06:43:51.779Z,2.45
2022-11-06T06:44:53.182Z,2.41
2022-11-06T06:45:57.959Z,2.38
2022-11-06T06:46:59.451Z,2.49
2022-11-06T06:48:04.535Z,2.55
2022-11-06T06:49:06.358Z,2.52
2022-11-06T06:50:08.998Z,2.60
2022-11-06T06:51:11.785Z,2.64
2022-11-06T06:52:13.557Z,2.67
2022-11-06T06:53:14.980Z,2.69
2022-11-06T06:54:16.739Z,2.63
2022-11-06T06:55:18.134Z,2.61
2022-11-06T06:56:19.672Z,2.60
2022-11-06T06:57:21.130Z,2.56
2022-11-06T06:58:22.817Z,2.69
2022-11-06T06:59:24.593Z,2.76
2022-11-06T07:00:26.959Z,2.83
2022-11-06T07:01:28.520Z,2.89
2022-11-06T07:02:30.173Z,2.91
2022-11-06T07:03:32.457Z,2.91
2022-11-06T07:04:33.880Z,2.80
2022-11-06T07:05:36.397Z,2.85
2022-11-06T07:06:39.144Z,2.69
2022-11-06T07:07:40.625Z,2.37
2022-11-06T07:08:42.047Z,2.13
2022-11-06T07:09:43.467Z,1.72
2022-11-06T07:10:45.047Z,1.65
2022-11-06T07:11:46.458Z,1.58
2022-11-06T07:12:47.962Z,1.86
2022-11-06T07:13:49.448Z,1.99
2022-11-06T07:14:50.880Z,1.84
2022-11-06T07:15:52.301Z,1.74
2022-11-06T07:16:54.123Z,1.52
2022-11-06T07:17:55.653Z,1.45
2022-11-06T07:18:57.111Z,1.30
2022-11-06T07:19:58.535Z,1.42
2022-11-06T07:20:59.975Z,1.45
2022-11-06T07:22:02.765Z,0.97
2022-11-06T07:23:06.247Z,0.87
2022-11-06T07:24:08.015Z,0.90
2022-11-06T07:25:09.577Z,0.94
2022-11-06T07:26:11.000Z,0.78
2022-11-06T07:27:12.416Z,0.85
2022-11-06T07:28:13.933Z,0.91
2022-11-06T07:29:15.467Z,0.91
2022-11-06T07:30:17.084Z,1.35
2022-11-06T07:31:18.827Z,1.25
2022-11-06T07:32:20.298Z,1.21
2022-11-06T07:33:21.699Z,1.14
2022-11-06T07:34:23.287Z,1.07
2022-11-06T07:35:24.732Z,0.83
2022-11-06T07:36:26.178Z,0.80
2022-11-06T07:37:29.067Z,0.51
2022-11-06T07:38:32.367Z,0.55
2022-11-06T07:39:34.109Z,0.50
2022-11-06T07:40:36.311Z,0.41
2022-11-06T07:41:38.075Z,0.50
2022-11-06T07:42:43.305Z,0.41
2022-11-06T07:43:48.622Z,0.41
2022-11-06T07:44:50.132Z,0.41
2022-11-06T07:45:51.578Z,0.50
2022-11-06T07:46:52.979Z,0.69
2022-11-06T07:47:59.084Z,0.64
2022-11-06T07:49:00.775Z,0.77
2022-11-06T07:50:02.468Z,0.81
2022-11-06T07:51:05.681Z,0.78
2022-11-06T07:52:07.075Z,0.90
2022-11-06T07:53:09.969Z,0.95
2022-11-06T07:54:11.949Z,0.87
2022-11-06T07:55:13.419Z,0.82
2022-11-06T07:56:15.015Z,0.93
2022-11-06T07:57:16.510Z,0.99
2022-11-06T07:58:18.081Z,0.84
2022-11-06T07:59:19.572Z,0.89
2022-11-06T08:00:21.291Z,0.85
2022-11-06T08:01:22.846Z,1.15
2022-11-06T08:02:24.510Z,1.40
2022-11-06T08:03:26.690Z,1.57
2022-11-06T08:04:28.409Z,1.67
2022-11-06T08:05:29.826Z,1.57
2022-11-06T08:06:31.246Z,1.65
2022-11-06T08:07:32.693Z,1.59
2022-11-06T08:08:35.966Z,1.82
2022-11-06T08:09:37.454Z,1.98
2022-11-06T08:10:39.771Z,2.09
2022-11-06T08:11:41.192Z,2.10
2022-11-06T08:12:42.625Z,2.18
2022-11-06T08:13:44.160Z,2.06
2022-11-06T08:14:45.611Z,2.32
2022-11-06T08:15:47.020Z,2.38
2022-11-06T08:16:48.593Z,2.36
2022-11-06T08:17:50.015Z,2.36
2022-11-06T08:18:51.444Z,2.37
2022-11-06T08:19:52.866Z,2.41
2022-11-06T08:20:54.293Z,2.45
2022-11-06T08:21:56.280Z,2.41
2022-11-06T08:23:01.231Z,2.24
2022-11-06T08:24:04.758Z,2.33
2022-11-06T08:25:07.668Z,2.09
2022-11-06T08:26:10.540Z,2.20
2022-11-06T08:27:11.954Z,2.36
2022-11-06T08:28:13.670Z,2.42
2022-11-06T08:29:15.598Z,2.29
2022-11-06T08:30:17.215Z,2.44
2022-11-06T08:31:18.667Z,2.02
2022-11-06T08:32:20.111Z,2.22
2022-11-06T08:33:22.663Z,2.08
2022-11-06T08:34:24.224Z,2.24
2022-11-06T08:35:25.712Z,2.46
2022-11-06T08:36:27.161Z,2.50
2022-11-06T08:37:28.587Z,2.52
2022-11-06T08:38:30.099Z,2.46
2022-11-06T08:39:32.939Z,2.66
2022-11-06T08:40:36.952Z,2.80
2022-11-06T08:41:38.548Z,2.93
2022-11-06T08:42:40.000Z,2.86
2022-11-06T08:43:41.463Z,2.58
2022-11-06T08:44:42.924Z,2.84
2022-11-06T08:45:44.387Z,2.88
2022-11-06T08:46:51.924Z,2.85
2022-11-06T08:47:53.940Z,2.77
2022-11-06T08:48:56.124Z,2.91
2022-11-06T08:49:57.608Z,3.13
2022-11-06T08:50:59.198Z,2.90
2022-11-06T08:52:00.634Z,3.23
2022-11-06T08:53:02.975Z,3.13
2022-11-06T08:54:04.527Z,3.19
2022-11-06T08:55:08.144Z,3.12
2022-11-06T08:56:09.574Z,3.25
2022-11-06T08:57:10.989Z,3.45
2022-11-06T08:58:12.501Z,3.30
2022-11-06T08:59:13.923Z,3.31
2022-11-06T09:00:16.362Z,2.97
2022-11-06T09:01:17.859Z,2.61
2022-11-06T09:02:19.356Z,2.65
2022-11-06T09:03:21.090Z,2.86
2022-11-06T09:04:22.563Z,3.33
2022-11-06T09:05:24.202Z,3.07
2022-11-06T09:06:26.175Z,3.08
2022-11-06T09:07:27.569Z,3.40
2022-11-06T09:08:28.991Z,3.35
2022-11-06T09:09:30.455Z,3.44
2022-11-06T09:10:33.687Z,3.55
2022-11-06T09:11:35.203Z,3.61
2022-11-06T09:12:36.623Z,3.67
2022-11-06T09:13:38.170Z,3.43
2022-11-06T09:14:39.604Z,3.60
2022-11-06T09:15:41.336Z,3.62
2022-11-06T09:16:42.763Z,3.60
2022-11-06T09:17:44.256Z,3.81
2022-11-06T09:18:45.720Z,3.80
2022-11-06T09:19:50.184Z,4.04
2022-11-06T09:20:54.160Z,4.02
2022-11-06T09:21:55.568Z,4.15
2022-11-06T09:23:00.682Z,3.86
2022-11-06T09:24:02.126Z,4.03
2022-11-06T09:25:04.760Z,3.96
2022-11-06T09:26:07.649Z,3.88
2022-11-06T09:27:09.454Z,4.09
2022-11-06T09:28:10.949Z,4.35
2022-11-06T09:29:12.445Z,4.40
2022-11-06T09:30:15.762Z,4.64
2022-11-06T09:31:17.207Z,4.32
2022-11-06T09:32:18.974Z,4.29
2022-11-06T09:33:21.012Z,4.56
2022-11-06T09:34:22.631Z,4.33
2022-11-06T09:35:26.016Z,4.39
2022-11-06T09:36:27.456Z,4.57
2022-11-06T09:37:28.874Z,4.40
2022-11-06T09:38:30.326Z,4.12
2022-11-06T09:39:31.744Z,3.63
2022-11-06T09:40:35.986Z,3.63
2022-11-06T09:41:51.511Z,4.08
2022-11-06T09:43:03.771Z,3.61
2022-11-06T09:44:21.454Z,3.42
2022-11-06T09:45:26.566Z,3.45
2022-11-06T09:46:31.656Z,3.49
2022-11-06T09:47:37.861Z,3.60
2022-11-06T09:48:44.626Z,3.67
2022-11-06T09:49:50.203Z,3.77
2022-11-06T09:50:56.207Z,3.76
2022-11-06T09:52:01.867Z,3.65
2022-11-06T09:53:10.866Z,3.87
2022-11-06T09:54:17.606Z,3.77
2022-11-06T09:55:22.867Z,4.01
2022-11-06T09:56:29.260Z,3.64
2022-11-06T09:57:38.138Z,4.04
2022-11-06T09:58:43.662Z,4.27
2022-11-06T09:59:46.401Z,4.04
2022-11-06T10:00:50.186Z,3.95
2022-11-06T10:01:55.025Z,3.95
2022-11-06T10:03:00.567Z,4.23
2022-11-06T10:04:04.170Z,4.30
2022-11-06T10:05:13.783Z,4.17
2022-11-06T10:06:15.335Z,4.10
2022-11-06T10:07:27.127Z,3.87
2022-11-06T10:08:30.338Z,3.62
2022-11-06T10:09:31.822Z,3.81
2022-11-06T10:10:41.304Z,3.80
2022-11-06T10:11:57.890Z,3.81
2022-11-06T10:13:17.849Z,3.61
2022-11-06T10:14:32.635Z,3.50
2022-11-06T10:15:39.426Z,3.71
2022-11-06T10:16:49.675Z,3.74
2022-11-06T10:18:00.814Z,3.93
2022-11-06T10:19:10.587Z,3.86
2022-11-06T10:20:23.681Z,3.95
2022-11-06T10:21:39.415Z,4.22
2022-11-06T10:22:42.032Z,4.07
2022-11-06T10:23:49.176Z,4.14
2022-11-06T10:24:58.880Z,4.01
2022-11-06T10:26:08.312Z,3.96
2022-11-06T10:27:15.698Z,4.25
2022-11-06T10:28:33.787Z,4.41
2022-11-06T10:29:57.846Z,4.27
2022-11-06T10:31:07.931Z,4.41
2022-11-06T10:32:28.280Z,4.08
2022-11-06T10:33:43.651Z,3.92
2022-11-06T10:34:48.911Z,4.18
2022-11-06T10:35:58.363Z,4.51
2022-11-06T10:37:04.052Z,4.61
2022-11-06T10:38:11.289Z,4.48
2022-11-06T10:39:17.244Z,4.63
2022-11-06T10:40:22.217Z,4.71
2022-11-06T10:41:26.471Z,4.53
2022-11-06T10:42:37.625Z,4.15
2022-11-06T10:43:48.355Z,4.13
2022-11-06T10:44:52.881Z,4.15
2022-11-06T10:46:02.882Z,4.31
2022-11-06T10:47:10.544Z,4.50
2022-11-06T10:48:26.034Z,4.64
2022-11-06T10:49:38.662Z,4.49
2022-11-06T10:50:50.637Z,4.66
2022-11-06T10:52:14.767Z,4.55
2022-11-06T10:53:24.569Z,4.34
2022-11-06T10:54:38.301Z,4.36
2022-11-06T10:56:08.156Z,4.13
2022-11-06T10:57:24.673Z,4.24
2022-11-06T10:58:28.924Z,4.27
2022-11-06T10:59:32.254Z,4.24
2022-11-06T11:00:34.501Z,4.21
2022-11-06T11:01:37.399Z,4.34
2022-11-06T11:02:44.018Z,4.38
2022-11-06T11:03:47.093Z,4.38
2022-11-06T11:04:48.495Z,4.31
2022-11-06T11:05:49.971Z,4.73
2022-11-06T11:06:51.412Z,4.67
2022-11-06T11:07:53.189Z,4.78
2022-11-06T11:08:54.632Z,5.13
2022-11-06T11:09:56.080Z,5.13
2022-11-06T11:11:05.091Z,5.01
2022-11-06T11:12:20.920Z,5.29
2022-11-06T11:13:22.362Z,5.43
2022-11-06T11:14:25.462Z,5.45
2022-11-06T11:15:31.033Z,5.60
2022-11-06T11:16:34.960Z,5.60
2022-11-06T11:17:36.402Z,5.68
2022-11-06T11:18:37.840Z,5.71
2022-11-06T11:19:41.047Z,5.57
2022-11-06T11:20:44.419Z,5.64
2022-11-06T11:21:52.763Z,5.90
2022-11-06T11:23:05.547Z,5.86
2022-11-06T11:24:09.058Z,5.84
2022-11-06T11:25:25.287Z,5.86
2022-11-06T11:26:29.361Z,5.93
2022-11-06T11:27:34.914Z,6.03
2022-11-06T11:28:38.158Z,6.07
2022-11-06T11:29:44.565Z,5.83
2022-11-06T11:30:52.110Z,5.43
2022-11-06T11:31:56.757Z,5.48
2022-11-06T11:32:59.117Z,5.05
2022-11-06T11:34:03.332Z,5.02
2022-11-06T11:35:10.504Z,5.08
2022-11-06T11:36:12.078Z,5.43
2022-11-06T11:37:24.236Z,4.97
2022-11-06T11:38:26.535Z,4.83
2022-11-06T11:39:31.211Z,4.99
2022-11-06T11:40:36.051Z,5.29
2022-11-06T11:41:37.637Z,5.03
2022-11-06T11:42:39.095Z,5.22
2022-11-06T11:43:41.184Z,5.69
2022-11-06T11:44:42.620Z,5.82
2022-11-06T11:45:44.068Z,5.91
2022-11-06T11:46:49.039Z,5.79
2022-11-06T11:47:51.602Z,5.95
2022-11-06T11:48:55.287Z,6.05
2022-11-06T11:49:56.716Z,5.78
2022-11-06T11:50:58.181Z,5.94
2022-11-06T11:52:01.458Z,6.13
2022-11-06T11:53:11.188Z,6.16
2022-11-06T11:54:19.512Z,6.23
2022-11-06T11:55:24.899Z,6.10
2022-11-06T11:56:49.681Z,6.14
2022-11-06T11:57:51.382Z,6.30
2022-11-06T11:58:55.163Z,6.16
2022-11-06T11:59:58.905Z,6.27
2022-11-06T12:01:03.149Z,6.05
2022-11-06T12:02:16.277Z,6.25
2022-11-06T12:03:18.024Z,6.34
2022-11-06T12:04:24.625Z,6.46
2022-11-06T12:05:32.609Z,6.38
2022-11-06T12:06:34.098Z,6.44
2022-11-06T12:07:43.425Z,6.50
2022-11-06T12:08:49.969Z,6.53
2022-11-06T12:09:51.504Z,5.76
2022-11-06T12:10:53.104Z,5.78
2022-11-06T12:11:58.064Z,5.66
2022-11-06T12:13:02.651Z,5.64
2022-11-06T12:14:27.319Z,5.68
2022-11-06T12:15:40.205Z,5.29
2022-11-06T12:16:42.653Z,5.69
2022-11-06T12:17:51.248Z,6.04
2022-11-06T12:18:58.895Z,5.98
2022-11-06T12:20:03.092Z,6.02
2022-11-06T12:21:06.909Z,6.04
2022-11-06T12:22:17.634Z,6.23
2022-11-06T12:23:24.763Z,6.17
2022-11-06T12:24:32.708Z,6.19
2022-11-06T12:25:39.995Z,6.37
2022-11-06T12:26:47.847Z,6.17
2022-11-06T12:27:53.675Z,5.81
2022-11-06T12:29:04.615Z,5.94
2022-11-06T12:30:07.687Z,5.73
2022-11-06T12:31:17.292Z,6.03
2022-11-06T12:32:26.594Z,5.87
2022-11-06T12:34:04.525Z,6.14
2022-11-06T12:34:58.914Z,5.97
2022-11-06T12:36:06.797Z,5.70
2022-11-06T12:37:20.224Z,5.73
2022-11-06T12:38:31.758Z,5.65
2022-11-06T12:39:34.471Z,5.92
2022-11-06T12:40:39.097Z,5.97
2022-11-06T12:41:45.328Z,5.90
2022-11-06T12:42:58.112Z,5.96
2022-11-06T12:43:59.616Z,5.92
2022-11-06T12:45:01.143Z,5.72
2022-11-06T12:46:31.675Z,5.73
2022-11-06T12:47:46.700Z,5.66
2022-11-06T12:49:12.553Z,5.54
2022-11-06T12:50:24.865Z,5.35
2022-11-06T12:51:33.728Z,5.37
2022-11-06T12:52:51.254Z,5.41
2022-11-06T12:54:05.823Z,5.34
2022-11-06T12:55:19.306Z,5.36
2022-11-06T12:56:25.910Z,5.43
2022-11-06T12:57:37.975Z,5.16
2022-11-06T12:59:02.466Z,5.10
2022-11-06T13:00:09.489Z,5.27
2022-11-06T13:01:17.884Z,5.58
2022-11-06T13:02:37.816Z,5.33
2022-11-06T13:04:03.345Z,4.83
2022-11-06T13:05:13.479Z,5.07
2022-11-06T13:06:25.385Z,4.87
2022-11-06T13:08:00.815Z,4.77
2022-11-06T13:09:10.463Z,4.68
2022-11-06T13:10:29.392Z,4.85
2022-11-06T13:11:40.982Z,5.05
2022-11-06T13:12:52.685Z,4.93
2022-11-06T13:14:03.982Z,4.89
2022-11-06T13:15:17.836Z,4.74
2022-11-06T13:16:30.133Z,4.77
2022-11-06T13:17:38.240Z,5.00
2022-11-06T13:18:49.074Z,5.03
2022-11-06T13:20:02.733Z,5.10
2022-11-06T13:21:10.428Z,4.98
2022-11-06T13:22:23.889Z,4.99
2022-11-06T13:23:29.175Z,4.94
2022-11-06T13:24:36.991Z,4.94
2022-11-06T13:25:48.729Z,5.07
2022-11-06T13:26:54.570Z,5.17
2022-11-06T13:28:00.562Z,5.04
2022-11-06T13:29:04.922Z,5.08
2022-11-06T13:30:14.389Z,5.08
2022-11-06T13:31:20.678Z,5.25
2022-11-06T13:32:24.715Z,5.24
2022-11-06T13:33:29.530Z,5.19
2022-11-06T13:34:35.034Z,5.15
2022-11-06T13:35:41.473Z,4.92
2022-11-06T13:36:43.724Z,5.15
2022-11-06T13:37:47.766Z,5.30
2022-11-06T13:38:53.457Z,5.20
2022-11-06T13:40:02.044Z,5.11
2022-11-06T13:41:11.465Z,5.08
2022-11-06T13:42:23.190Z,5.34
2022-11-06T13:43:29.375Z,5.34
2022-11-06T13:44:31.623Z,5.28
2022-11-06T13:45:42.923Z,5.38
2022-11-06T13:46:54.066Z,5.46
2022-11-06T13:48:10.899Z,5.21
2022-11-06T13:49:22.232Z,5.27
2022-11-06T13:50:31.125Z,5.30
2022-11-06T13:51:43.897Z,5.26
2022-11-06T13:52:50.758Z,5.24
2022-11-06T13:54:00.785Z,5.09
2022-11-06T13:55:16.189Z,5.36
2022-11-06T13:56:35.959Z,5.33
2022-11-06T13:58:23.970Z,5.18
2022-11-06T13:59:49.961Z,5.08
2022-11-06T14:01:01.672Z,5.18
2022-11-06T14:02:20.582Z,5.06
2022-11-06T14:04:00.423Z,5.05
2022-11-06T14:05:46.528Z,5.25
2022-11-06T14:06:53.305Z,5.15
2022-11-06T14:07:56.130Z,5.17
2022-11-06T14:09:01.844Z,5.18
2022-11-06T14:10:04.505Z,4.95
2022-11-06T14:11:12.110Z,5.21
2022-11-06T14:12:19.285Z,5.41
2022-11-06T14:13:26.452Z,5.18
2022-11-06T14:14:30.675Z,5.10
2022-11-06T14:15:35.992Z,5.26
2022-11-06T14:16:39.386Z,5.43
2022-11-06T14:17:40.843Z,5.56
2022-11-06T14:18:42.557Z,5.46
2022-11-06T14:20:02.597Z,5.43
2022-11-06T14:21:27.545Z,5.35
2022-11-06T14:22:32.645Z,5.35
2022-11-06T14:23:46.675Z,5.38
2022-11-06T14:24:48.107Z,5.51
2022-11-06T14:26:00.910Z,5.55
2022-11-06T14:27:04.300Z,5.63
2022-11-06T14:28:06.552Z,5.58
2022-11-06T14:29:53.694Z,5.63
2022-11-06T14:31:13.202Z,5.60
2022-11-06T14:32:35.123Z,5.70